sensor_id;sensor_type;location;lat;lon;timestamp;P1;durP1;ratioP1;P2;durP2;ratioP2
37903;SDS011;23738;50.422;18.758;2023-12-29T00:01:35;20.60;;;15.90;;
37903;SDS011;23738;50.422;18.758;2023-12-29T00:04:05;23.70;;;14.00;;
37903;SDS011;23738;50.422;18.758;2023-12-29T00:06:37;16.20;;;12.60;;
37903;SDS011;23738;50.422;18.758;2023-12-29T00:09:07;15.70;;;13.50;;
37903;SDS011;23738;50.422;18.758;2023-12-29T00:11:37;19.10;;;13.80;;
37903;SDS011;23738;50.422;18.758;2023-12-29T00:14:08;18.70;;;14.10;;
37903;SDS011;23738;50.422;18.758;2023-12-29T00:16:37;17.80;;;14.80;;
37903;SDS011;23738;50.422;18.758;2023-12-29T00:19:10;17.60;;;14.30;;
37903;SDS011;23738;50.422;18.758;2023-12-29T00:21:41;18.10;;;13.50;;
37903;SDS011;23738;50.422;18.758;2023-12-29T00:24:12;17.70;;;13.30;;
37903;SDS011;23738;50.422;18.758;2023-12-29T00:26:43;18.80;;;12.80;;
37903;SDS011;23738;50.422;18.758;2023-12-29T00:29:14;22.90;;;14.70;;
37903;SDS011;23738;50.422;18.758;2023-12-29T00:31:44;27.00;;;16.20;;
37903;SDS011;23738;50.422;18.758;2023-12-29T00:34:14;22.40;;;15.80;;
37903;SDS011;23738;50.422;18.758;2023-12-29T00:36:44;23.90;;;15.20;;
37903;SDS011;23738;50.422;18.758;2023-12-29T00:39:14;24.80;;;15.60;;
37903;SDS011;23738;50.422;18.758;2023-12-29T00:41:45;22.70;;;14.50;;
37903;SDS011;23738;50.422;18.758;2023-12-29T00:44:15;25.00;;;15.00;;
37903;SDS011;23738;50.422;18.758;2023-12-29T00:46:45;23.80;;;14.90;;
37903;SDS011;23738;50.422;18.758;2023-12-29T00:49:15;20.70;;;14.80;;
37903;SDS011;23738;50.422;18.758;2023-12-29T00:51:45;21.20;;;15.30;;
37903;SDS011;23738;50.422;18.758;2023-12-29T00:54:15;18.20;;;14.10;;
37903;SDS011;23738;50.422;18.758;2023-12-29T00:56:49;18.50;;;14.30;;
37903;SDS011;23738;50.422;18.758;2023-12-29T00:59:19;18.70;;;13.00;;
37903;SDS011;23738;50.422;18.758;2023-12-29T01:01:49;18.70;;;13.80;;
37903;SDS011;23738;50.422;18.758;2023-12-29T01:04:19;17.50;;;13.70;;
37903;SDS011;23738;50.422;18.758;2023-12-29T01:06:50;18.20;;;14.40;;
37903;SDS011;23738;50.422;18.758;2023-12-29T01:09:21;19.60;;;14.30;;
37903;SDS011;23738;50.422;18.758;2023-12-29T01:11:51;19.90;;;13.90;;
37903;SDS011;23738;50.422;18.758;2023-12-29T01:14:21;16.90;;;13.00;;
37903;SDS011;23738;50.422;18.758;2023-12-29T01:16:51;15.80;;;13.00;;
37903;SDS011;23738;50.422;18.758;2023-12-29T01:19:21;16.70;;;13.30;;
37903;SDS011;23738;50.422;18.758;2023-12-29T01:21:51;16.80;;;13.70;;
37903;SDS011;23738;50.422;18.758;2023-12-29T01:24:21;19.30;;;14.90;;
37903;SDS011;23738;50.422;18.758;2023-12-29T01:26:52;16.60;;;14.10;;
37903;SDS011;23738;50.422;18.758;2023-12-29T01:29:22;18.20;;;13.60;;
37903;SDS011;23738;50.422;18.758;2023-12-29T01:31:52;21.20;;;12.80;;
37903;SDS011;23738;50.422;18.758;2023-12-29T01:34:21;17.20;;;12.20;;
37903;SDS011;23738;50.422;18.758;2023-12-29T01:36:59;15.40;;;12.40;;
37903;SDS011;23738;50.422;18.758;2023-12-29T01:39:30;17.80;;;13.10;;
37903;SDS011;23738;50.422;18.758;2023-12-29T01:42:01;19.90;;;13.40;;
37903;SDS011;23738;50.422;18.758;2023-12-29T01:44:31;19.60;;;13.00;;
37903;SDS011;23738;50.422;18.758;2023-12-29T01:47:02;18.80;;;13.40;;
37903;SDS011;23738;50.422;18.758;2023-12-29T01:49:39;16.40;;;11.30;;
37903;SDS011;23738;50.422;18.758;2023-12-29T01:52:12;13.90;;;12.00;;
37903;SDS011;23738;50.422;18.758;2023-12-29T01:54:43;14.80;;;11.70;;
37903;SDS011;23738;50.422;18.758;2023-12-29T01:57:15;14.50;;;12.90;;
37903;SDS011;23738;50.422;18.758;2023-12-29T01:59:46;19.30;;;12.40;;
37903;SDS011;23738;50.422;18.758;2023-12-29T02:02:17;19.20;;;13.10;;
37903;SDS011;23738;50.422;18.758;2023-12-29T02:04:47;16.10;;;11.90;;
37903;SDS011;23738;50.422;18.758;2023-12-29T02:07:17;13.70;;;10.90;;
37903;SDS011;23738;50.422;18.758;2023-12-29T02:09:48;13.80;;;11.50;;
37903;SDS011;23738;50.422;18.758;2023-12-29T02:12:19;13.70;;;11.50;;
37903;SDS011;23738;50.422;18.758;2023-12-29T02:14:50;14.10;;;12.40;;
37903;SDS011;23738;50.422;18.758;2023-12-29T02:17:21;13.60;;;11.10;;
37903;SDS011;23738;50.422;18.758;2023-12-29T02:19:54;15.10;;;12.10;;
37903;SDS011;23738;50.422;18.758;2023-12-29T02:22:25;17.60;;;12.90;;
37903;SDS011;23738;50.422;18.758;2023-12-29T02:24:55;22.80;;;13.80;;
37903;SDS011;23738;50.422;18.758;2023-12-29T02:27:28;16.40;;;11.30;;
37903;SDS011;23738;50.422;18.758;2023-12-29T02:30:11;17.00;;;11.50;;
37903;SDS011;23738;50.422;18.758;2023-12-29T02:32:48;13.20;;;10.90;;
37903;SDS011;23738;50.422;18.758;2023-12-29T02:35:23;15.10;;;11.30;;
37903;SDS011;23738;50.422;18.758;2023-12-29T02:37:56;15.20;;;10.80;;
37903;SDS011;23738;50.422;18.758;2023-12-29T02:40:26;17.40;;;12.40;;
37903;SDS011;23738;50.422;18.758;2023-12-29T02:42:57;16.80;;;12.00;;
37903;SDS011;23738;50.422;18.758;2023-12-29T02:45:28;13.70;;;10.20;;
37903;SDS011;23738;50.422;18.758;2023-12-29T02:47:58;15.10;;;11.60;;
37903;SDS011;23738;50.422;18.758;2023-12-29T02:50:29;11.80;;;10.40;;
37903;SDS011;23738;50.422;18.758;2023-12-29T02:52:59;11.50;;;10.20;;
37903;SDS011;23738;50.422;18.758;2023-12-29T02:55:30;13.00;;;11.20;;
37903;SDS011;23738;50.422;18.758;2023-12-29T02:58:00;14.70;;;11.10;;
37903;SDS011;23738;50.422;18.758;2023-12-29T03:00:31;14.80;;;12.00;;
37903;SDS011;23738;50.422;18.758;2023-12-29T03:03:01;14.90;;;11.70;;
37903;SDS011;23738;50.422;18.758;2023-12-29T03:05:34;15.50;;;11.00;;
37903;SDS011;23738;50.422;18.758;2023-12-29T03:08:05;12.40;;;10.60;;
37903;SDS011;23738;50.422;18.758;2023-12-29T03:10:35;13.10;;;10.00;;
37903;SDS011;23738;50.422;18.758;2023-12-29T03:13:05;12.20;;;10.10;;
37903;SDS011;23738;50.422;18.758;2023-12-29T03:15:36;12.10;;;10.90;;
37903;SDS011;23738;50.422;18.758;2023-12-29T03:18:06;13.00;;;10.30;;
37903;SDS011;23738;50.422;18.758;2023-12-29T03:20:36;15.50;;;11.40;;
37903;SDS011;23738;50.422;18.758;2023-12-29T03:23:07;13.20;;;10.70;;
37903;SDS011;23738;50.422;18.758;2023-12-29T03:25:37;15.70;;;11.00;;
37903;SDS011;23738;50.422;18.758;2023-12-29T03:28:07;11.80;;;9.90;;
37903;SDS011;23738;50.422;18.758;2023-12-29T03:30:37;15.00;;;10.30;;
37903;SDS011;23738;50.422;18.758;2023-12-29T03:33:07;14.60;;;10.80;;
37903;SDS011;23738;50.422;18.758;2023-12-29T03:35:37;13.60;;;11.60;;
37903;SDS011;23738;50.422;18.758;2023-12-29T03:38:07;17.10;;;11.90;;
37903;SDS011;23738;50.422;18.758;2023-12-29T03:40:38;17.50;;;12.50;;
37903;SDS011;23738;50.422;18.758;2023-12-29T03:43:08;15.60;;;12.50;;
37903;SDS011;23738;50.422;18.758;2023-12-29T03:45:38;14.10;;;11.00;;
37903;SDS011;23738;50.422;18.758;2023-12-29T03:48:08;13.40;;;10.10;;
37903;SDS011;23738;50.422;18.758;2023-12-29T03:50:38;13.60;;;10.90;;
37903;SDS011;23738;50.422;18.758;2023-12-29T03:53:08;11.10;;;9.90;;
37903;SDS011;23738;50.422;18.758;2023-12-29T03:55:39;12.80;;;10.60;;
37903;SDS011;23738;50.422;18.758;2023-12-29T03:58:09;13.10;;;11.00;;
37903;SDS011;23738;50.422;18.758;2023-12-29T04:00:39;12.70;;;10.90;;
37903;SDS011;23738;50.422;18.758;2023-12-29T04:03:09;11.90;;;10.20;;
37903;SDS011;23738;50.422;18.758;2023-12-29T04:05:39;11.20;;;9.90;;
37903;SDS011;23738;50.422;18.758;2023-12-29T04:08:09;13.50;;;9.40;;
37903;SDS011;23738;50.422;18.758;2023-12-29T04:10:40;13.80;;;10.60;;
37903;SDS011;23738;50.422;18.758;2023-12-29T04:13:10;12.80;;;10.80;;
37903;SDS011;23738;50.422;18.758;2023-12-29T04:15:40;14.00;;;10.90;;
37903;SDS011;23738;50.422;18.758;2023-12-29T04:18:11;12.40;;;10.40;;
37903;SDS011;23738;50.422;18.758;2023-12-29T04:20:42;13.80;;;11.90;;
37903;SDS011;23738;50.422;18.758;2023-12-29T04:23:11;14.20;;;11.00;;
37903;SDS011;23738;50.422;18.758;2023-12-29T04:25:42;16.70;;;11.30;;
37903;SDS011;23738;50.422;18.758;2023-12-29T04:28:12;12.50;;;10.80;;
37903;SDS011;23738;50.422;18.758;2023-12-29T04:30:42;11.80;;;10.00;;
37903;SDS011;23738;50.422;18.758;2023-12-29T04:33:12;13.10;;;11.70;;
37903;SDS011;23738;50.422;18.758;2023-12-29T04:35:42;13.70;;;12.00;;
37903;SDS011;23738;50.422;18.758;2023-12-29T04:38:12;14.40;;;11.60;;
37903;SDS011;23738;50.422;18.758;2023-12-29T04:40:44;16.10;;;11.30;;
37903;SDS011;23738;50.422;18.758;2023-12-29T04:43:14;18.10;;;11.70;;
37903;SDS011;23738;50.422;18.758;2023-12-29T04:45:44;18.10;;;12.20;;
37903;SDS011;23738;50.422;18.758;2023-12-29T04:48:14;13.20;;;11.10;;
37903;SDS011;23738;50.422;18.758;2023-12-29T04:50:45;18.20;;;11.00;;
37903;SDS011;23738;50.422;18.758;2023-12-29T04:53:15;15.50;;;10.50;;
37903;SDS011;23738;50.422;18.758;2023-12-29T04:55:44;13.90;;;10.70;;
37903;SDS011;23738;50.422;18.758;2023-12-29T04:58:14;13.10;;;10.20;;
37903;SDS011;23738;50.422;18.758;2023-12-29T05:00:45;11.60;;;9.40;;
37903;SDS011;23738;50.422;18.758;2023-12-29T05:03:15;13.20;;;8.80;;
37903;SDS011;23738;50.422;18.758;2023-12-29T05:05:45;10.10;;;8.30;;
37903;SDS011;23738;50.422;18.758;2023-12-29T05:08:15;11.90;;;8.30;;
37903;SDS011;23738;50.422;18.758;2023-12-29T05:10:45;11.90;;;8.60;;
37903;SDS011;23738;50.422;18.758;2023-12-29T05:13:15;12.40;;;8.90;;
37903;SDS011;23738;50.422;18.758;2023-12-29T05:15:46;11.90;;;9.00;;
37903;SDS011;23738;50.422;18.758;2023-12-29T05:18:18;13.10;;;9.60;;
37903;SDS011;23738;50.422;18.758;2023-12-29T05:20:48;11.10;;;8.70;;
37903;SDS011;23738;50.422;18.758;2023-12-29T05:23:19;10.80;;;7.90;;
37903;SDS011;23738;50.422;18.758;2023-12-29T05:25:49;9.10;;;8.20;;
37903;SDS011;23738;50.422;18.758;2023-12-29T05:28:19;9.80;;;8.50;;
37903;SDS011;23738;50.422;18.758;2023-12-29T05:30:50;9.80;;;8.60;;
37903;SDS011;23738;50.422;18.758;2023-12-29T05:33:20;12.60;;;9.30;;
37903;SDS011;23738;50.422;18.758;2023-12-29T05:35:52;10.60;;;8.70;;
37903;SDS011;23738;50.422;18.758;2023-12-29T05:38:22;12.10;;;7.60;;
37903;SDS011;23738;50.422;18.758;2023-12-29T05:40:53;9.00;;;7.60;;
37903;SDS011;23738;50.422;18.758;2023-12-29T05:43:23;8.80;;;7.90;;
37903;SDS011;23738;50.422;18.758;2023-12-29T05:45:53;9.20;;;8.00;;
37903;SDS011;23738;50.422;18.758;2023-12-29T05:48:24;10.70;;;8.00;;
37903;SDS011;23738;50.422;18.758;2023-12-29T05:50:54;8.50;;;7.50;;
37903;SDS011;23738;50.422;18.758;2023-12-29T05:53:25;9.00;;;7.40;;
37903;SDS011;23738;50.422;18.758;2023-12-29T05:55:58;9.70;;;6.30;;
37903;SDS011;23738;50.422;18.758;2023-12-29T05:58:29;8.80;;;6.90;;
37903;SDS011;23738;50.422;18.758;2023-12-29T06:00:59;8.80;;;7.90;;
37903;SDS011;23738;50.422;18.758;2023-12-29T06:03:30;9.90;;;8.20;;
37903;SDS011;23738;50.422;18.758;2023-12-29T06:06:00;10.10;;;8.90;;
37903;SDS011;23738;50.422;18.758;2023-12-29T06:08:31;13.50;;;10.70;;
37903;SDS011;23738;50.422;18.758;2023-12-29T06:11:01;13.80;;;9.50;;
37903;SDS011;23738;50.422;18.758;2023-12-29T06:13:31;11.60;;;8.20;;
37903;SDS011;23738;50.422;18.758;2023-12-29T06:16:01;9.90;;;8.30;;
37903;SDS011;23738;50.422;18.758;2023-12-29T06:18:33;9.40;;;7.90;;
37903;SDS011;23738;50.422;18.758;2023-12-29T06:21:04;9.40;;;7.70;;
37903;SDS011;23738;50.422;18.758;2023-12-29T06:23:34;11.20;;;8.00;;
37903;SDS011;23738;50.422;18.758;2023-12-29T06:26:05;9.80;;;8.50;;
37903;SDS011;23738;50.422;18.758;2023-12-29T06:28:44;8.50;;;7.40;;
37903;SDS011;23738;50.422;18.758;2023-12-29T06:31:16;8.70;;;7.40;;
37903;SDS011;23738;50.422;18.758;2023-12-29T06:33:47;9.10;;;7.50;;
37903;SDS011;23738;50.422;18.758;2023-12-29T06:36:17;9.10;;;7.20;;
37903;SDS011;23738;50.422;18.758;2023-12-29T06:38:48;9.40;;;7.90;;
37903;SDS011;23738;50.422;18.758;2023-12-29T06:41:19;11.30;;;8.60;;
37903;SDS011;23738;50.422;18.758;2023-12-29T06:43:49;10.90;;;8.90;;
37903;SDS011;23738;50.422;18.758;2023-12-29T06:46:19;24.50;;;13.60;;
37903;SDS011;23738;50.422;18.758;2023-12-29T06:48:49;31.00;;;17.20;;
37903;SDS011;23738;50.422;18.758;2023-12-29T06:51:20;25.10;;;13.60;;
37903;SDS011;23738;50.422;18.758;2023-12-29T06:53:50;22.50;;;13.90;;
37903;SDS011;23738;50.422;18.758;2023-12-29T06:56:20;14.70;;;11.40;;
37903;SDS011;23738;50.422;18.758;2023-12-29T06:58:50;14.10;;;11.80;;
37903;SDS011;23738;50.422;18.758;2023-12-29T07:01:21;15.70;;;11.70;;
37903;SDS011;23738;50.422;18.758;2023-12-29T07:03:51;15.40;;;11.50;;
37903;SDS011;23738;50.422;18.758;2023-12-29T07:06:22;14.40;;;11.00;;
37903;SDS011;23738;50.422;18.758;2023-12-29T07:08:53;14.50;;;9.80;;
37903;SDS011;23738;50.422;18.758;2023-12-29T07:11:22;9.30;;;8.20;;
37903;SDS011;23738;50.422;18.758;2023-12-29T07:13:52;11.30;;;8.70;;
37903;SDS011;23738;50.422;18.758;2023-12-29T07:16:22;13.80;;;9.90;;
37903;SDS011;23738;50.422;18.758;2023-12-29T07:18:52;11.50;;;8.90;;
37903;SDS011;23738;50.422;18.758;2023-12-29T07:21:23;11.70;;;9.40;;
37903;SDS011;23738;50.422;18.758;2023-12-29T07:23:52;12.80;;;9.50;;
37903;SDS011;23738;50.422;18.758;2023-12-29T07:26:24;18.70;;;11.80;;
37903;SDS011;23738;50.422;18.758;2023-12-29T07:28:54;13.50;;;8.40;;
37903;SDS011;23738;50.422;18.758;2023-12-29T07:31:24;13.40;;;8.30;;
37903;SDS011;23738;50.422;18.758;2023-12-29T07:33:54;12.50;;;8.80;;
37903;SDS011;23738;50.422;18.758;2023-12-29T07:36:25;20.10;;;10.50;;
37903;SDS011;23738;50.422;18.758;2023-12-29T07:38:55;13.60;;;9.60;;
37903;SDS011;23738;50.422;18.758;2023-12-29T07:41:25;13.40;;;9.40;;
37903;SDS011;23738;50.422;18.758;2023-12-29T07:43:56;11.60;;;8.20;;
37903;SDS011;23738;50.422;18.758;2023-12-29T07:46:26;12.80;;;7.90;;
37903;SDS011;23738;50.422;18.758;2023-12-29T07:48:56;10.80;;;7.70;;
37903;SDS011;23738;50.422;18.758;2023-12-29T07:51:26;11.90;;;8.00;;
37903;SDS011;23738;50.422;18.758;2023-12-29T07:53:56;9.70;;;7.30;;
37903;SDS011;23738;50.422;18.758;2023-12-29T07:56:26;11.10;;;8.90;;
37903;SDS011;23738;50.422;18.758;2023-12-29T07:58:56;10.70;;;8.80;;
37903;SDS011;23738;50.422;18.758;2023-12-29T08:01:27;11.10;;;9.60;;
37903;SDS011;23738;50.422;18.758;2023-12-29T08:03:57;9.50;;;7.30;;
37903;SDS011;23738;50.422;18.758;2023-12-29T08:06:27;8.40;;;6.50;;
37903;SDS011;23738;50.422;18.758;2023-12-29T08:08:58;8.50;;;6.60;;
37903;SDS011;23738;50.422;18.758;2023-12-29T08:11:27;6.80;;;6.10;;
37903;SDS011;23738;50.422;18.758;2023-12-29T08:13:58;8.30;;;6.80;;
37903;SDS011;23738;50.422;18.758;2023-12-29T08:16:32;9.20;;;6.80;;
37903;SDS011;23738;50.422;18.758;2023-12-29T08:19:05;7.20;;;6.00;;
37903;SDS011;23738;50.422;18.758;2023-12-29T08:21:37;8.20;;;7.10;;
37903;SDS011;23738;50.422;18.758;2023-12-29T08:24:07;8.50;;;6.70;;
37903;SDS011;23738;50.422;18.758;2023-12-29T08:26:43;9.80;;;7.20;;
37903;SDS011;23738;50.422;18.758;2023-12-29T08:29:15;12.20;;;7.40;;
37903;SDS011;23738;50.422;18.758;2023-12-29T08:31:46;12.30;;;7.40;;
37903;SDS011;23738;50.422;18.758;2023-12-29T08:34:16;7.80;;;7.00;;
37903;SDS011;23738;50.422;18.758;2023-12-29T08:36:46;8.70;;;7.10;;
37903;SDS011;23738;50.422;18.758;2023-12-29T08:39:16;9.90;;;7.90;;
37903;SDS011;23738;50.422;18.758;2023-12-29T08:41:48;11.90;;;8.50;;
37903;SDS011;23738;50.422;18.758;2023-12-29T08:44:17;11.40;;;8.60;;
37903;SDS011;23738;50.422;18.758;2023-12-29T08:46:48;8.90;;;7.70;;
37903;SDS011;23738;50.422;18.758;2023-12-29T08:49:18;11.30;;;8.00;;
37903;SDS011;23738;50.422;18.758;2023-12-29T08:51:49;7.70;;;7.00;;
37903;SDS011;23738;50.422;18.758;2023-12-29T08:54:18;8.40;;;6.70;;
37903;SDS011;23738;50.422;18.758;2023-12-29T08:56:48;9.80;;;6.30;;
37903;SDS011;23738;50.422;18.758;2023-12-29T08:59:18;8.20;;;6.80;;
37903;SDS011;23738;50.422;18.758;2023-12-29T09:01:48;13.10;;;7.30;;
37903;SDS011;23738;50.422;18.758;2023-12-29T09:04:18;10.10;;;7.10;;
37903;SDS011;23738;50.422;18.758;2023-12-29T09:06:48;9.80;;;7.40;;
37903;SDS011;23738;50.422;18.758;2023-12-29T09:09:18;7.90;;;7.00;;
37903;SDS011;23738;50.422;18.758;2023-12-29T09:11:48;9.20;;;6.80;;
37903;SDS011;23738;50.422;18.758;2023-12-29T09:14:17;11.90;;;6.10;;
37903;SDS011;23738;50.422;18.758;2023-12-29T09:16:47;7.50;;;6.70;;
37903;SDS011;23738;50.422;18.758;2023-12-29T09:19:20;7.40;;;6.00;;
37903;SDS011;23738;50.422;18.758;2023-12-29T09:21:50;7.20;;;6.50;;
37903;SDS011;23738;50.422;18.758;2023-12-29T09:24:22;8.70;;;7.10;;
37903;SDS011;23738;50.422;18.758;2023-12-29T09:26:53;8.30;;;7.20;;
37903;SDS011;23738;50.422;18.758;2023-12-29T09:29:23;9.00;;;6.40;;
37903;SDS011;23738;50.422;18.758;2023-12-29T09:31:54;9.10;;;5.80;;
37903;SDS011;23738;50.422;18.758;2023-12-29T09:34:24;7.00;;;5.40;;
37903;SDS011;23738;50.422;18.758;2023-12-29T09:36:54;8.60;;;6.40;;
37903;SDS011;23738;50.422;18.758;2023-12-29T09:39:24;7.70;;;6.40;;
37903;SDS011;23738;50.422;18.758;2023-12-29T09:41:56;9.20;;;6.80;;
37903;SDS011;23738;50.422;18.758;2023-12-29T09:44:29;9.30;;;8.40;;
37903;SDS011;23738;50.422;18.758;2023-12-29T09:47:02;8.20;;;6.30;;
37903;SDS011;23738;50.422;18.758;2023-12-29T09:49:37;9.30;;;7.10;;
37903;SDS011;23738;50.422;18.758;2023-12-29T09:52:09;6.50;;;5.60;;
37903;SDS011;23738;50.422;18.758;2023-12-29T09:54:40;8.30;;;5.70;;
37903;SDS011;23738;50.422;18.758;2023-12-29T09:57:12;6.90;;;6.20;;
37903;SDS011;23738;50.422;18.758;2023-12-29T09:59:42;6.80;;;6.10;;
37903;SDS011;23738;50.422;18.758;2023-12-29T10:02:14;9.00;;;8.10;;
37903;SDS011;23738;50.422;18.758;2023-12-29T10:04:44;7.50;;;6.30;;
37903;SDS011;23738;50.422;18.758;2023-12-29T10:07:15;7.20;;;6.50;;
37903;SDS011;23738;50.422;18.758;2023-12-29T10:09:52;7.50;;;5.90;;
37903;SDS011;23738;50.422;18.758;2023-12-29T10:12:25;7.70;;;6.00;;
37903;SDS011;23738;50.422;18.758;2023-12-29T10:15:01;7.00;;;6.30;;
37903;SDS011;23738;50.422;18.758;2023-12-29T10:17:43;10.00;;;6.90;;
37903;SDS011;23738;50.422;18.758;2023-12-29T10:20:28;9.30;;;6.90;;
37903;SDS011;23738;50.422;18.758;2023-12-29T10:23:08;8.80;;;7.30;;
37903;SDS011;23738;50.422;18.758;2023-12-29T10:25:41;7.60;;;6.10;;
37903;SDS011;23738;50.422;18.758;2023-12-29T10:28:11;7.80;;;5.70;;
37903;SDS011;23738;50.422;18.758;2023-12-29T10:30:42;8.60;;;6.60;;
37903;SDS011;23738;50.422;18.758;2023-12-29T10:33:13;8.70;;;7.30;;
37903;SDS011;23738;50.422;18.758;2023-12-29T10:36:00;8.90;;;6.70;;
37903;SDS011;23738;50.422;18.758;2023-12-29T10:38:33;6.20;;;5.10;;
37903;SDS011;23738;50.422;18.758;2023-12-29T10:41:14;6.20;;;5.40;;
37903;SDS011;23738;50.422;18.758;2023-12-29T10:43:46;7.20;;;5.30;;
37903;SDS011;23738;50.422;18.758;2023-12-29T10:46:21;6.20;;;4.60;;
37903;SDS011;23738;50.422;18.758;2023-12-29T10:48:53;5.80;;;4.70;;
37903;SDS011;23738;50.422;18.758;2023-12-29T10:51:35;4.30;;;3.80;;
37903;SDS011;23738;50.422;18.758;2023-12-29T10:54:06;5.90;;;5.30;;
37903;SDS011;23738;50.422;18.758;2023-12-29T10:56:36;5.20;;;4.60;;
37903;SDS011;23738;50.422;18.758;2023-12-29T10:59:06;7.30;;;6.40;;
37903;SDS011;23738;50.422;18.758;2023-12-29T11:01:40;7.90;;;7.00;;
37903;SDS011;23738;50.422;18.758;2023-12-29T11:04:12;10.20;;;9.10;;
37903;SDS011;23738;50.422;18.758;2023-12-29T11:06:44;15.30;;;9.20;;
37903;SDS011;23738;50.422;18.758;2023-12-29T11:09:19;20.10;;;10.50;;
37903;SDS011;23738;50.422;18.758;2023-12-29T11:11:58;27.60;;;15.70;;
37903;SDS011;23738;50.422;18.758;2023-12-29T11:14:31;27.90;;;15.30;;
37903;SDS011;23738;50.422;18.758;2023-12-29T11:17:01;15.90;;;10.70;;
37903;SDS011;23738;50.422;18.758;2023-12-29T11:19:31;9.80;;;6.60;;
37903;SDS011;23738;50.422;18.758;2023-12-29T11:22:01;7.40;;;5.10;;
37903;SDS011;23738;50.422;18.758;2023-12-29T11:24:33;7.80;;;5.40;;
37903;SDS011;23738;50.422;18.758;2023-12-29T11:27:03;5.30;;;4.40;;
37903;SDS011;23738;50.422;18.758;2023-12-29T11:29:34;6.30;;;4.40;;
37903;SDS011;23738;50.422;18.758;2023-12-29T11:32:06;5.20;;;4.50;;
37903;SDS011;23738;50.422;18.758;2023-12-29T11:34:41;5.40;;;3.70;;
37903;SDS011;23738;50.422;18.758;2023-12-29T11:37:18;4.80;;;4.30;;
37903;SDS011;23738;50.422;18.758;2023-12-29T11:40:01;3.90;;;3.50;;
37903;SDS011;23738;50.422;18.758;2023-12-29T11:42:42;4.80;;;4.10;;
37903;SDS011;23738;50.422;18.758;2023-12-29T11:45:25;7.00;;;4.10;;
37903;SDS011;23738;50.422;18.758;2023-12-29T11:47:56;5.20;;;4.20;;
37903;SDS011;23738;50.422;18.758;2023-12-29T11:50:30;4.40;;;3.80;;
37903;SDS011;23738;50.422;18.758;2023-12-29T11:53:01;5.30;;;4.60;;
37903;SDS011;23738;50.422;18.758;2023-12-29T11:55:34;8.30;;;5.60;;
37903;SDS011;23738;50.422;18.758;2023-12-29T12:23:33;8.20;;;6.00;;
37903;SDS011;23738;50.422;18.758;2023-12-29T12:26:08;7.10;;;6.00;;
37903;SDS011;23738;50.422;18.758;2023-12-29T12:28:39;8.00;;;5.90;;
37903;SDS011;23738;50.422;18.758;2023-12-29T12:31:11;8.80;;;5.60;;
37903;SDS011;23738;50.422;18.758;2023-12-29T12:33:44;6.40;;;4.70;;
37903;SDS011;23738;50.422;18.758;2023-12-29T12:36:23;5.20;;;4.20;;
37903;SDS011;23738;50.422;18.758;2023-12-29T12:38:54;8.30;;;5.50;;
37903;SDS011;23738;50.422;18.758;2023-12-29T12:41:25;6.30;;;5.30;;
37903;SDS011;23738;50.422;18.758;2023-12-29T12:44:00;7.20;;;5.80;;
37903;SDS011;23738;50.422;18.758;2023-12-29T12:46:39;13.30;;;6.80;;
37903;SDS011;23738;50.422;18.758;2023-12-29T12:49:16;9.30;;;6.70;;
37903;SDS011;23738;50.422;18.758;2023-12-29T12:51:48;9.00;;;7.20;;
37903;SDS011;23738;50.422;18.758;2023-12-29T12:54:19;8.10;;;5.30;;
37903;SDS011;23738;50.422;18.758;2023-12-29T12:56:49;7.10;;;5.60;;
37903;SDS011;23738;50.422;18.758;2023-12-29T12:59:19;13.20;;;9.50;;
37903;SDS011;23738;50.422;18.758;2023-12-29T13:01:50;13.00;;;10.30;;
37903;SDS011;23738;50.422;18.758;2023-12-29T13:04:20;8.50;;;6.40;;
37903;SDS011;23738;50.422;18.758;2023-12-29T13:06:50;10.20;;;7.30;;
37903;SDS011;23738;50.422;18.758;2023-12-29T13:09:20;7.90;;;6.00;;
37903;SDS011;23738;50.422;18.758;2023-12-29T13:11:51;6.20;;;5.60;;
37903;SDS011;23738;50.422;18.758;2023-12-29T13:14:37;6.60;;;4.80;;
37903;SDS011;23738;50.422;18.758;2023-12-29T13:17:08;5.70;;;5.00;;
37903;SDS011;23738;50.422;18.758;2023-12-29T13:19:39;29.80;;;19.80;;
37903;SDS011;23738;50.422;18.758;2023-12-29T13:22:10;14.20;;;9.80;;
37903;SDS011;23738;50.422;18.758;2023-12-29T13:24:45;10.50;;;8.30;;
37903;SDS011;23738;50.422;18.758;2023-12-29T13:27:15;11.10;;;7.30;;
37903;SDS011;23738;50.422;18.758;2023-12-29T13:29:45;10.10;;;8.30;;
37903;SDS011;23738;50.422;18.758;2023-12-29T13:32:17;16.80;;;11.30;;
37903;SDS011;23738;50.422;18.758;2023-12-29T13:34:55;40.50;;;19.20;;
37903;SDS011;23738;50.422;18.758;2023-12-29T13:37:33;117.20;;;44.00;;
37903;SDS011;23738;50.422;18.758;2023-12-29T13:40:11;61.10;;;28.20;;
37903;SDS011;23738;50.422;18.758;2023-12-29T13:42:45;21.60;;;12.10;;
37903;SDS011;23738;50.422;18.758;2023-12-29T13:45:18;18.50;;;11.60;;
37903;SDS011;23738;50.422;18.758;2023-12-29T13:47:49;18.20;;;11.60;;
37903;SDS011;23738;50.422;18.758;2023-12-29T13:50:21;12.80;;;9.40;;
37903;SDS011;23738;50.422;18.758;2023-12-29T13:52:52;12.10;;;9.50;;
37903;SDS011;23738;50.422;18.758;2023-12-29T13:55:22;13.40;;;9.70;;
37903;SDS011;23738;50.422;18.758;2023-12-29T13:57:52;15.50;;;10.70;;
37903;SDS011;23738;50.422;18.758;2023-12-29T14:00:24;14.70;;;10.80;;
37903;SDS011;23738;50.422;18.758;2023-12-29T14:03:01;14.30;;;9.60;;
37903;SDS011;23738;50.422;18.758;2023-12-29T14:05:39;15.50;;;10.90;;
37903;SDS011;23738;50.422;18.758;2023-12-29T14:08:18;12.00;;;7.80;;
37903;SDS011;23738;50.422;18.758;2023-12-29T14:10:53;10.10;;;7.10;;
37903;SDS011;23738;50.422;18.758;2023-12-29T14:13:23;8.90;;;6.40;;
37903;SDS011;23738;50.422;18.758;2023-12-29T14:15:53;11.00;;;6.20;;
37903;SDS011;23738;50.422;18.758;2023-12-29T14:21:29;23.90;;;11.10;;
37903;SDS011;23738;50.422;18.758;2023-12-29T14:24:10;42.20;;;16.20;;
37903;SDS011;23738;50.422;18.758;2023-12-29T14:26:41;57.20;;;21.30;;
37903;SDS011;23738;50.422;18.758;2023-12-29T14:29:23;54.70;;;21.00;;
37903;SDS011;23738;50.422;18.758;2023-12-29T14:31:59;41.50;;;18.30;;
37903;SDS011;23738;50.422;18.758;2023-12-29T14:34:29;29.10;;;15.30;;
37903;SDS011;23738;50.422;18.758;2023-12-29T14:37:01;35.20;;;15.80;;
37903;SDS011;23738;50.422;18.758;2023-12-29T14:39:33;48.60;;;19.30;;
37903;SDS011;23738;50.422;18.758;2023-12-29T14:42:05;32.50;;;16.10;;
37903;SDS011;23738;50.422;18.758;2023-12-29T14:44:39;35.20;;;15.70;;
37903;SDS011;23738;50.422;18.758;2023-12-29T14:47:10;28.40;;;14.40;;
37903;SDS011;23738;50.422;18.758;2023-12-29T14:49:40;19.10;;;12.70;;
37903;SDS011;23738;50.422;18.758;2023-12-29T14:52:10;27.60;;;14.30;;
37903;SDS011;23738;50.422;18.758;2023-12-29T14:54:41;42.10;;;21.30;;
37903;SDS011;23738;50.422;18.758;2023-12-29T14:57:11;36.20;;;16.90;;
37903;SDS011;23738;50.422;18.758;2023-12-29T14:59:41;56.90;;;26.10;;
37903;SDS011;23738;50.422;18.758;2023-12-29T15:02:11;101.30;;;44.70;;
37903;SDS011;23738;50.422;18.758;2023-12-29T15:04:41;98.80;;;40.90;;
37903;SDS011;23738;50.422;18.758;2023-12-29T15:07:11;69.10;;;29.20;;
37903;SDS011;23738;50.422;18.758;2023-12-29T15:09:41;67.60;;;32.10;;
37903;SDS011;23738;50.422;18.758;2023-12-29T15:12:11;60.70;;;29.30;;
37903;SDS011;23738;50.422;18.758;2023-12-29T15:14:42;108.70;;;44.60;;